sensor_id;sensor_type;location;lat;lon;timestamp;P1;durP1;ratioP1;P2;durP2;ratioP2
56429;SDS011;42332;52.136;20.666;2022-09-12T00:00:47;9.27;;;3.45;;
56429;SDS011;42332;52.136;20.666;2022-09-12T00:03:13;5.57;;;2.60;;
56429;SDS011;42332;52.136;20.666;2022-09-12T00:05:42;9.82;;;2.75;;
56429;SDS011;42332;52.136;20.666;2022-09-12T00:08:08;6.13;;;2.38;;
56429;SDS011;42332;52.136;20.666;2022-09-12T00:10:40;6.22;;;2.40;;
56429;SDS011;42332;52.136;20.666;2022-09-12T00:13:07;10.80;;;3.00;;
56429;SDS011;42332;52.136;20.666;2022-09-12T00:15:40;3.60;;;1.40;;
56429;SDS011;42332;52.136;20.666;2022-09-12T00:18:07;7.00;;;2.85;;
56429;SDS011;42332;52.136;20.666;2022-09-12T00:20:33;8.13;;;2.35;;
56429;SDS011;42332;52.136;20.666;2022-09-12T00:22:59;7.55;;;2.92;;
56429;SDS011;42332;52.136;20.666;2022-09-12T00:25:24;7.05;;;3.00;;
56429;SDS011;42332;52.136;20.666;2022-09-12T00:27:50;9.55;;;3.20;;
56429;SDS011;42332;52.136;20.666;2022-09-12T00:30:16;4.97;;;2.42;;
56429;SDS011;42332;52.136;20.666;2022-09-12T00:32:41;6.30;;;2.83;;
56429;SDS011;42332;52.136;20.666;2022-09-12T00:35:06;4.60;;;2.58;;
56429;SDS011;42332;52.136;20.666;2022-09-12T00:37:33;7.85;;;3.78;;
56429;SDS011;42332;52.136;20.666;2022-09-12T00:39:58;3.35;;;1.58;;
56429;SDS011;42332;52.136;20.666;2022-09-12T00:42:24;5.38;;;3.00;;
56429;SDS011;42332;52.136;20.666;2022-09-12T00:44:50;3.17;;;1.60;;
56429;SDS011;42332;52.136;20.666;2022-09-12T00:47:18;5.75;;;1.90;;
56429;SDS011;42332;52.136;20.666;2022-09-12T00:52:28;10.88;;;2.35;;
56429;SDS011;42332;52.136;20.666;2022-09-12T00:55:04;5.05;;;2.08;;
56429;SDS011;42332;52.136;20.666;2022-09-12T00:57:36;5.45;;;2.65;;
56429;SDS011;42332;52.136;20.666;2022-09-12T01:00:10;5.97;;;2.33;;
56429;SDS011;42332;52.136;20.666;2022-09-12T01:02:39;8.57;;;3.28;;
56429;SDS011;42332;52.136;20.666;2022-09-12T01:05:05;7.35;;;3.00;;
56429;SDS011;42332;52.136;20.666;2022-09-12T01:07:33;6.00;;;2.63;;
56429;SDS011;42332;52.136;20.666;2022-09-12T01:10:00;10.73;;;3.03;;
56429;SDS011;42332;52.136;20.666;2022-09-12T01:12:26;8.63;;;3.40;;
56429;SDS011;42332;52.136;20.666;2022-09-12T01:14:51;9.07;;;3.15;;
56429;SDS011;42332;52.136;20.666;2022-09-12T01:17:16;9.50;;;3.10;;
56429;SDS011;42332;52.136;20.666;2022-09-12T01:19:48;6.45;;;2.88;;
56429;SDS011;42332;52.136;20.666;2022-09-12T01:35:51;10.57;;;2.95;;
56429;SDS011;42332;52.136;20.666;2022-09-12T01:38:38;7.43;;;3.42;;
56429;SDS011;42332;52.136;20.666;2022-09-12T01:43:56;10.05;;;2.85;;
56429;SDS011;42332;52.136;20.666;2022-09-12T01:51:59;14.77;;;4.00;;
56429;SDS011;42332;52.136;20.666;2022-09-12T01:54:43;7.35;;;3.05;;
56429;SDS011;42332;52.136;20.666;2022-09-12T01:57:22;6.65;;;3.20;;
56429;SDS011;42332;52.136;20.666;2022-09-12T01:59:53;9.65;;;2.17;;
56429;SDS011;42332;52.136;20.666;2022-09-12T02:02:32;6.65;;;3.30;;
56429;SDS011;42332;52.136;20.666;2022-09-12T02:05:08;3.22;;;1.88;;
56429;SDS011;42332;52.136;20.666;2022-09-12T02:07:39;9.45;;;3.92;;
56429;SDS011;42332;52.136;20.666;2022-09-12T02:10:17;11.43;;;3.17;;
56429;SDS011;42332;52.136;20.666;2022-09-12T02:15:15;6.65;;;2.35;;
56429;SDS011;42332;52.136;20.666;2022-09-12T02:17:43;10.70;;;3.30;;
56429;SDS011;42332;52.136;20.666;2022-09-12T02:20:28;11.00;;;3.30;;
56429;SDS011;42332;52.136;20.666;2022-09-12T02:22:55;13.10;;;3.35;;
56429;SDS011;42332;52.136;20.666;2022-09-12T02:25:21;6.13;;;2.10;;
56429;SDS011;42332;52.136;20.666;2022-09-12T02:27:49;7.20;;;3.03;;
56429;SDS011;42332;52.136;20.666;2022-09-12T02:30:18;11.10;;;3.40;;
56429;SDS011;42332;52.136;20.666;2022-09-12T02:40:53;7.38;;;3.03;;
56429;SDS011;42332;52.136;20.666;2022-09-12T02:43:19;6.82;;;2.72;;
56429;SDS011;42332;52.136;20.666;2022-09-12T02:45:44;8.82;;;2.92;;
56429;SDS011;42332;52.136;20.666;2022-09-12T02:48:11;6.80;;;3.25;;
56429;SDS011;42332;52.136;20.666;2022-09-12T02:50:39;8.13;;;3.20;;
56429;SDS011;42332;52.136;20.666;2022-09-12T02:53:05;10.27;;;3.65;;
56429;SDS011;42332;52.136;20.666;2022-09-12T02:55:32;6.97;;;3.30;;
56429;SDS011;42332;52.136;20.666;2022-09-12T02:58:02;8.35;;;3.75;;
56429;SDS011;42332;52.136;20.666;2022-09-12T03:00:29;6.75;;;3.08;;
56429;SDS011;42332;52.136;20.666;2022-09-12T03:05:54;6.13;;;2.78;;
56429;SDS011;42332;52.136;20.666;2022-09-12T03:18:47;7.78;;;3.38;;
56429;SDS011;42332;52.136;20.666;2022-09-12T03:24:28;8.00;;;3.38;;
56429;SDS011;42332;52.136;20.666;2022-09-12T03:26:51;8.18;;;3.53;;
56429;SDS011;42332;52.136;20.666;2022-09-12T03:29:23;6.82;;;1.95;;
56429;SDS011;42332;52.136;20.666;2022-09-12T03:31:53;3.70;;;1.70;;
56429;SDS011;42332;52.136;20.666;2022-09-12T03:34:20;9.55;;;3.78;;
56429;SDS011;42332;52.136;20.666;2022-09-12T03:36:47;6.90;;;3.15;;
56429;SDS011;42332;52.136;20.666;2022-09-12T03:39:13;10.73;;;3.42;;
56429;SDS011;42332;52.136;20.666;2022-09-12T03:41:39;4.35;;;1.77;;
56429;SDS011;42332;52.136;20.666;2022-09-12T03:44:04;6.18;;;3.55;;
56429;SDS011;42332;52.136;20.666;2022-09-12T03:46:30;11.00;;;3.80;;
56429;SDS011;42332;52.136;20.666;2022-09-12T03:48:55;11.02;;;3.65;;
56429;SDS011;42332;52.136;20.666;2022-09-12T03:51:21;6.57;;;2.90;;
56429;SDS011;42332;52.136;20.666;2022-09-12T03:53:46;5.57;;;2.72;;
56429;SDS011;42332;52.136;20.666;2022-09-12T03:56:12;5.53;;;2.92;;
56429;SDS011;42332;52.136;20.666;2022-09-12T03:58:37;8.88;;;3.17;;
56429;SDS011;42332;52.136;20.666;2022-09-12T04:01:07;9.48;;;4.13;;
56429;SDS011;42332;52.136;20.666;2022-09-12T04:03:40;2.38;;;1.48;;
56429;SDS011;42332;52.136;20.666;2022-09-12T04:06:07;7.88;;;3.45;;
56429;SDS011;42332;52.136;20.666;2022-09-12T04:08:33;9.13;;;4.05;;
56429;SDS011;42332;52.136;20.666;2022-09-12T04:11:07;9.50;;;3.65;;
56429;SDS011;42332;52.136;20.666;2022-09-12T04:13:35;7.05;;;3.03;;
56429;SDS011;42332;52.136;20.666;2022-09-12T04:16:01;5.90;;;2.97;;
56429;SDS011;42332;52.136;20.666;2022-09-12T04:18:27;9.48;;;3.42;;
56429;SDS011;42332;52.136;20.666;2022-09-12T04:20:53;6.22;;;3.03;;
56429;SDS011;42332;52.136;20.666;2022-09-12T04:23:18;13.18;;;3.85;;
56429;SDS011;42332;52.136;20.666;2022-09-12T04:25:44;7.70;;;3.67;;
56429;SDS011;42332;52.136;20.666;2022-09-12T04:28:18;9.68;;;3.83;;
56429;SDS011;42332;52.136;20.666;2022-09-12T04:30:43;6.15;;;2.40;;
56429;SDS011;42332;52.136;20.666;2022-09-12T04:33:08;7.65;;;2.97;;
56429;SDS011;42332;52.136;20.666;2022-09-12T04:35:34;5.90;;;2.90;;
56429;SDS011;42332;52.136;20.666;2022-09-12T04:38:00;7.13;;;3.63;;
56429;SDS011;42332;52.136;20.666;2022-09-12T04:40:27;10.48;;;3.70;;
56429;SDS011;42332;52.136;20.666;2022-09-12T04:42:53;7.63;;;3.78;;
56429;SDS011;42332;52.136;20.666;2022-09-12T04:45:20;11.68;;;3.78;;
56429;SDS011;42332;52.136;20.666;2022-09-12T04:47:45;6.80;;;3.42;;
56429;SDS011;42332;52.136;20.666;2022-09-12T04:50:11;13.60;;;4.00;;
56429;SDS011;42332;52.136;20.666;2022-09-12T04:52:36;13.63;;;3.83;;
56429;SDS011;42332;52.136;20.666;2022-09-12T04:55:02;6.65;;;3.47;;
56429;SDS011;42332;52.136;20.666;2022-09-12T04:57:27;7.32;;;3.38;;
56429;SDS011;42332;52.136;20.666;2022-09-12T04:59:53;8.80;;;3.75;;
56429;SDS011;42332;52.136;20.666;2022-09-12T05:02:18;8.90;;;3.80;;
56429;SDS011;42332;52.136;20.666;2022-09-12T05:04:43;8.05;;;3.88;;
56429;SDS011;42332;52.136;20.666;2022-09-12T05:07:10;9.15;;;3.67;;
56429;SDS011;42332;52.136;20.666;2022-09-12T05:09:36;9.50;;;3.45;;
56429;SDS011;42332;52.136;20.666;2022-09-12T05:12:01;10.43;;;4.22;;
56429;SDS011;42332;52.136;20.666;2022-09-12T05:14:28;7.68;;;3.17;;
56429;SDS011;42332;52.136;20.666;2022-09-12T05:16:53;8.18;;;3.38;;
56429;SDS011;42332;52.136;20.666;2022-09-12T05:19:23;6.40;;;2.85;;
56429;SDS011;42332;52.136;20.666;2022-09-12T05:21:49;7.93;;;3.30;;
56429;SDS011;42332;52.136;20.666;2022-09-12T05:24:14;14.55;;;4.07;;
56429;SDS011;42332;52.136;20.666;2022-09-12T05:26:40;5.95;;;3.05;;
56429;SDS011;42332;52.136;20.666;2022-09-12T05:29:05;8.40;;;3.63;;
56429;SDS011;42332;52.136;20.666;2022-09-12T05:31:31;8.85;;;3.92;;
56429;SDS011;42332;52.136;20.666;2022-09-12T05:33:56;7.32;;;3.53;;
56429;SDS011;42332;52.136;20.666;2022-09-12T05:36:23;6.45;;;3.28;;
56429;SDS011;42332;52.136;20.666;2022-09-12T05:38:49;7.07;;;3.28;;
56429;SDS011;42332;52.136;20.666;2022-09-12T05:41:16;11.88;;;4.00;;
56429;SDS011;42332;52.136;20.666;2022-09-12T05:43:43;6.13;;;2.70;;
56429;SDS011;42332;52.136;20.666;2022-09-12T05:46:10;9.05;;;2.70;;
56429;SDS011;42332;52.136;20.666;2022-09-12T05:48:37;6.55;;;3.00;;
56429;SDS011;42332;52.136;20.666;2022-09-12T05:51:08;9.73;;;3.75;;
56429;SDS011;42332;52.136;20.666;2022-09-12T05:53:35;8.45;;;3.88;;
56429;SDS011;42332;52.136;20.666;2022-09-12T05:56:08;6.47;;;3.00;;
56429;SDS011;42332;52.136;20.666;2022-09-12T05:58:35;7.70;;;2.88;;
56429;SDS011;42332;52.136;20.666;2022-09-12T06:01:06;6.50;;;3.13;;
56429;SDS011;42332;52.136;20.666;2022-09-12T06:03:38;8.60;;;3.33;;
56429;SDS011;42332;52.136;20.666;2022-09-12T06:06:05;7.63;;;3.15;;
56429;SDS011;42332;52.136;20.666;2022-09-12T06:08:31;5.95;;;2.83;;
56429;SDS011;42332;52.136;20.666;2022-09-12T06:10:58;8.48;;;3.20;;
56429;SDS011;42332;52.136;20.666;2022-09-12T06:13:29;10.38;;;3.42;;
56429;SDS011;42332;52.136;20.666;2022-09-12T06:16:02;9.52;;;3.40;;
56429;SDS011;42332;52.136;20.666;2022-09-12T06:18:32;9.48;;;3.33;;
56429;SDS011;42332;52.136;20.666;2022-09-12T06:21:03;11.20;;;3.42;;
56429;SDS011;42332;52.136;20.666;2022-09-12T06:23:29;9.25;;;3.63;;
56429;SDS011;42332;52.136;20.666;2022-09-12T06:25:55;8.95;;;2.78;;
56429;SDS011;42332;52.136;20.666;2022-09-12T06:28:21;6.03;;;2.72;;
56429;SDS011;42332;52.136;20.666;2022-09-12T06:30:46;6.63;;;2.70;;
56429;SDS011;42332;52.136;20.666;2022-09-12T06:33:13;4.75;;;1.98;;
56429;SDS011;42332;52.136;20.666;2022-09-12T06:35:38;9.65;;;2.58;;
56429;SDS011;42332;52.136;20.666;2022-09-12T06:38:04;8.50;;;2.83;;
56429;SDS011;42332;52.136;20.666;2022-09-12T06:40:30;3.92;;;1.88;;
56429;SDS011;42332;52.136;20.666;2022-09-12T06:42:56;8.82;;;2.97;;
56429;SDS011;42332;52.136;20.666;2022-09-12T06:45:21;7.18;;;3.20;;
56429;SDS011;42332;52.136;20.666;2022-09-12T06:47:47;7.65;;;3.33;;
56429;SDS011;42332;52.136;20.666;2022-09-12T06:50:12;6.97;;;3.25;;
56429;SDS011;42332;52.136;20.666;2022-09-12T06:52:38;10.13;;;3.22;;
56429;SDS011;42332;52.136;20.666;2022-09-12T06:55:03;12.10;;;3.60;;
56429;SDS011;42332;52.136;20.666;2022-09-12T06:57:29;7.93;;;3.05;;
56429;SDS011;42332;52.136;20.666;2022-09-12T06:59:56;2.35;;;1.13;;
56429;SDS011;42332;52.136;20.666;2022-09-12T07:02:22;9.60;;;3.25;;
56429;SDS011;42332;52.136;20.666;2022-09-12T07:04:49;5.75;;;2.20;;
56429;SDS011;42332;52.136;20.666;2022-09-12T07:07:15;7.40;;;2.85;;
56429;SDS011;42332;52.136;20.666;2022-09-12T07:09:41;6.85;;;2.38;;
56429;SDS011;42332;52.136;20.666;2022-09-12T07:12:07;8.23;;;2.95;;
56429;SDS011;42332;52.136;20.666;2022-09-12T07:14:32;9.27;;;3.05;;
56429;SDS011;42332;52.136;20.666;2022-09-12T07:16:58;5.40;;;2.72;;
56429;SDS011;42332;52.136;20.666;2022-09-12T07:19:23;4.88;;;2.20;;
56429;SDS011;42332;52.136;20.666;2022-09-12T07:21:48;8.27;;;3.28;;
56429;SDS011;42332;52.136;20.666;2022-09-12T07:24:14;9.20;;;2.80;;
56429;SDS011;42332;52.136;20.666;2022-09-12T07:26:39;7.45;;;1.90;;
56429;SDS011;42332;52.136;20.666;2022-09-12T07:29:06;7.15;;;3.03;;
56429;SDS011;42332;52.136;20.666;2022-09-12T07:31:33;11.90;;;3.05;;
56429;SDS011;42332;52.136;20.666;2022-09-12T07:33:58;10.82;;;4.18;;
56429;SDS011;42332;52.136;20.666;2022-09-12T07:36:23;11.38;;;3.15;;
56429;SDS011;42332;52.136;20.666;2022-09-12T07:38:56;9.10;;;2.72;;
56429;SDS011;42332;52.136;20.666;2022-09-12T07:41:23;5.82;;;2.25;;
56429;SDS011;42332;52.136;20.666;2022-09-12T07:43:51;10.55;;;3.42;;
56429;SDS011;42332;52.136;20.666;2022-09-12T07:46:17;7.30;;;3.00;;
56429;SDS011;42332;52.136;20.666;2022-09-12T07:48:42;8.18;;;2.97;;
56429;SDS011;42332;52.136;20.666;2022-09-12T07:51:10;9.10;;;3.13;;
56429;SDS011;42332;52.136;20.666;2022-09-12T07:53:39;5.40;;;2.40;;
56429;SDS011;42332;52.136;20.666;2022-09-12T07:56:06;8.10;;;3.17;;
56429;SDS011;42332;52.136;20.666;2022-09-12T07:58:34;16.17;;;5.25;;
56429;SDS011;42332;52.136;20.666;2022-09-12T08:01:10;33.53;;;7.63;;
56429;SDS011;42332;52.136;20.666;2022-09-12T08:03:43;9.27;;;3.13;;
56429;SDS011;42332;52.136;20.666;2022-09-12T08:08:39;23.00;;;6.43;;
56429;SDS011;42332;52.136;20.666;2022-09-12T08:11:07;13.02;;;4.35;;
56429;SDS011;42332;52.136;20.666;2022-09-12T08:13:34;9.07;;;3.70;;
56429;SDS011;42332;52.136;20.666;2022-09-12T08:16:01;7.00;;;3.55;;
56429;SDS011;42332;52.136;20.666;2022-09-12T08:18:29;6.30;;;3.00;;
56429;SDS011;42332;52.136;20.666;2022-09-12T08:20:57;5.43;;;2.47;;
56429;SDS011;42332;52.136;20.666;2022-09-12T08:23:23;4.53;;;1.73;;
56429;SDS011;42332;52.136;20.666;2022-09-12T08:25:49;5.70;;;3.03;;
56429;SDS011;42332;52.136;20.666;2022-09-12T08:28:15;7.40;;;2.60;;
56429;SDS011;42332;52.136;20.666;2022-09-12T08:30:41;6.68;;;3.00;;
56429;SDS011;42332;52.136;20.666;2022-09-12T08:33:06;7.15;;;3.00;;
56429;SDS011;42332;52.136;20.666;2022-09-12T08:35:32;7.10;;;3.05;;
56429;SDS011;42332;52.136;20.666;2022-09-12T08:37:57;12.88;;;3.10;;
56429;SDS011;42332;52.136;20.666;2022-09-12T08:40:23;6.85;;;3.00;;
56429;SDS011;42332;52.136;20.666;2022-09-12T08:43:00;9.25;;;3.20;;
56429;SDS011;42332;52.136;20.666;2022-09-12T08:45:35;9.57;;;2.80;;
56429;SDS011;42332;52.136;20.666;2022-09-12T08:48:04;12.23;;;3.17;;
56429;SDS011;42332;52.136;20.666;2022-09-12T08:50:32;12.55;;;2.90;;
56429;SDS011;42332;52.136;20.666;2022-09-12T08:52:58;12.23;;;3.05;;
56429;SDS011;42332;52.136;20.666;2022-09-12T08:57:59;17.02;;;2.50;;
56429;SDS011;42332;52.136;20.666;2022-09-12T09:00:34;6.95;;;2.38;;
56429;SDS011;42332;52.136;20.666;2022-09-12T09:08:46;6.18;;;2.35;;
56429;SDS011;42332;52.136;20.666;2022-09-12T09:14:23;9.77;;;3.10;;
56429;SDS011;42332;52.136;20.666;2022-09-12T09:17:11;5.80;;;2.72;;
56429;SDS011;42332;52.136;20.666;2022-09-12T09:19:41;8.50;;;3.35;;
56429;SDS011;42332;52.136;20.666;2022-09-12T09:22:16;8.43;;;3.40;;
56429;SDS011;42332;52.136;20.666;2022-09-12T09:24:52;13.15;;;3.47;;
56429;SDS011;42332;52.136;20.666;2022-09-12T09:27:34;7.28;;;3.13;;
56429;SDS011;42332;52.136;20.666;2022-09-12T09:30:03;13.80;;;3.08;;
56429;SDS011;42332;52.136;20.666;2022-09-12T09:35:00;7.22;;;3.15;;
56429;SDS011;42332;52.136;20.666;2022-09-12T09:37:42;6.93;;;2.67;;
56429;SDS011;42332;52.136;20.666;2022-09-12T09:45:28;8.25;;;2.83;;
56429;SDS011;42332;52.136;20.666;2022-09-12T09:47:59;7.07;;;2.83;;
56429;SDS011;42332;52.136;20.666;2022-09-12T09:50:28;8.55;;;2.88;;
56429;SDS011;42332;52.136;20.666;2022-09-12T09:52:53;6.35;;;2.60;;
56429;SDS011;42332;52.136;20.666;2022-09-12T09:55:22;10.82;;;2.75;;
56429;SDS011;42332;52.136;20.666;2022-09-12T09:57:50;11.45;;;2.83;;
56429;SDS011;42332;52.136;20.666;2022-09-12T10:00:34;8.23;;;2.55;;
56429;SDS011;42332;52.136;20.666;2022-09-12T10:05:45;13.07;;;3.60;;
56429;SDS011;42332;52.136;20.666;2022-09-12T10:08:27;9.48;;;3.78;;
56429;SDS011;42332;52.136;20.666;2022-09-12T10:13:38;11.65;;;5.55;;
56429;SDS011;42332;52.136;20.666;2022-09-12T10:16:27;11.48;;;2.92;;
56429;SDS011;42332;52.136;20.666;2022-09-12T10:18:56;8.68;;;2.83;;
56429;SDS011;42332;52.136;20.666;2022-09-12T10:21:33;4.20;;;1.48;;
56429;SDS011;42332;52.136;20.666;2022-09-12T10:26:40;10.05;;;3.03;;
56429;SDS011;42332;52.136;20.666;2022-09-12T10:29:10;10.05;;;2.88;;
56429;SDS011;42332;52.136;20.666;2022-09-12T10:31:43;4.18;;;2.15;;
56429;SDS011;42332;52.136;20.666;2022-09-12T10:34:27;5.90;;;2.38;;
56429;SDS011;42332;52.136;20.666;2022-09-12T10:39:29;9.20;;;2.45;;
56429;SDS011;42332;52.136;20.666;2022-09-12T10:41:55;4.97;;;2.03;;
56429;SDS011;42332;52.136;20.666;2022-09-12T10:44:25;10.32;;;2.78;;
56429;SDS011;42332;52.136;20.666;2022-09-12T10:46:55;6.05;;;2.47;;
56429;SDS011;42332;52.136;20.666;2022-09-12T10:51:52;9.38;;;2.25;;
56429;SDS011;42332;52.136;20.666;2022-09-12T10:54:19;6.78;;;2.65;;
56429;SDS011;42332;52.136;20.666;2022-09-12T11:19:20;5.25;;;2.35;;
56429;SDS011;42332;52.136;20.666;2022-09-12T11:27:11;5.45;;;2.10;;
56429;SDS011;42332;52.136;20.666;2022-09-12T11:30:13;8.88;;;2.78;;
56429;SDS011;42332;52.136;20.666;2022-09-12T11:35:50;4.95;;;2.38;;
56429;SDS011;42332;52.136;20.666;2022-09-12T11:43:53;6.47;;;2.30;;
56429;SDS011;42332;52.136;20.666;2022-09-12T11:46:19;6.53;;;2.40;;
56429;SDS011;42332;52.136;20.666;2022-09-12T11:51:39;5.68;;;2.58;;
56429;SDS011;42332;52.136;20.666;2022-09-12T11:56:36;8.70;;;2.50;;
56429;SDS011;42332;52.136;20.666;2022-09-12T12:02:10;7.15;;;2.67;;
56429;SDS011;42332;52.136;20.666;2022-09-12T12:07:41;7.70;;;2.40;;
56429;SDS011;42332;52.136;20.666;2022-09-12T12:10:30;9.32;;;2.53;;
56429;SDS011;42332;52.136;20.666;2022-09-12T12:12:59;10.10;;;2.70;;
56429;SDS011;42332;52.136;20.666;2022-09-12T12:15:39;7.95;;;4.60;;
56429;SDS011;42332;52.136;20.666;2022-09-12T12:18:18;8.15;;;3.55;;
56429;SDS011;42332;52.136;20.666;2022-09-12T12:20:47;7.25;;;2.75;;
56429;SDS011;42332;52.136;20.666;2022-09-12T12:23:46;9.57;;;2.90;;
56429;SDS011;42332;52.136;20.666;2022-09-12T12:26:08;7.35;;;3.13;;
56429;SDS011;42332;52.136;20.666;2022-09-12T12:34:37;9.27;;;2.63;;
56429;SDS011;42332;52.136;20.666;2022-09-12T12:47:43;5.38;;;2.50;;
56429;SDS011;42332;52.136;20.666;2022-09-12T12:52:47;6.25;;;2.47;;
56429;SDS011;42332;52.136;20.666;2022-09-12T12:55:14;7.40;;;2.17;;
56429;SDS011;42332;52.136;20.666;2022-09-12T13:03:08;5.03;;;2.47;;
56429;SDS011;42332;52.136;20.666;2022-09-12T13:05:45;6.60;;;3.15;;
56429;SDS011;42332;52.136;20.666;2022-09-12T13:10:47;6.88;;;2.08;;
56429;SDS011;42332;52.136;20.666;2022-09-12T13:13:19;10.45;;;2.60;;
56429;SDS011;42332;52.136;20.666;2022-09-12T13:16:00;5.45;;;1.85;;
56429;SDS011;42332;52.136;20.666;2022-09-12T13:18:47;6.35;;;2.40;;
56429;SDS011;42332;52.136;20.666;2022-09-12T13:21:14;5.18;;;2.13;;
56429;SDS011;42332;52.136;20.666;2022-09-12T13:23:40;6.00;;;2.55;;
56429;SDS011;42332;52.136;20.666;2022-09-12T13:26:13;5.30;;;2.45;;
56429;SDS011;42332;52.136;20.666;2022-09-12T13:28:46;6.35;;;2.28;;
56429;SDS011;42332;52.136;20.666;2022-09-12T13:31:15;6.15;;;2.10;;
56429;SDS011;42332;52.136;20.666;2022-09-12T13:39:11;7.03;;;2.45;;
56429;SDS011;42332;52.136;20.666;2022-09-12T13:41:58;8.45;;;3.25;;
56429;SDS011;42332;52.136;20.666;2022-09-12T13:44:41;9.73;;;3.80;;
56429;SDS011;42332;52.136;20.666;2022-09-12T13:47:09;6.35;;;2.65;;
56429;SDS011;42332;52.136;20.666;2022-09-12T13:49:38;5.53;;;2.35;;
56429;SDS011;42332;52.136;20.666;2022-09-12T13:52:06;12.43;;;2.47;;
56429;SDS011;42332;52.136;20.666;2022-09-12T13:54:33;9.32;;;3.20;;
56429;SDS011;42332;52.136;20.666;2022-09-12T13:57:02;6.97;;;2.67;;
56429;SDS011;42332;52.136;20.666;2022-09-12T13:59:28;9.27;;;4.00;;
56429;SDS011;42332;52.136;20.666;2022-09-12T14:02:14;5.73;;;2.27;;
56429;SDS011;42332;52.136;20.666;2022-09-12T14:04:44;8.48;;;2.53;;
56429;SDS011;42332;52.136;20.666;2022-09-12T14:07:30;7.70;;;3.67;;
56429;SDS011;42332;52.136;20.666;2022-09-12T14:09:57;8.00;;;3.42;;
56429;SDS011;42332;52.136;20.666;2022-09-12T14:12:24;17.30;;;5.93;;
56429;SDS011;42332;52.136;20.666;2022-09-12T14:14:58;49.10;;;20.05;;
56429;SDS011;42332;52.136;20.666;2022-09-12T14:17:26;15.85;;;6.53;;
56429;SDS011;42332;52.136;20.666;2022-09-12T14:19:55;11.00;;;3.80;;
56429;SDS011;42332;52.136;20.666;2022-09-12T14:22:32;7.80;;;3.55;;
56429;SDS011;42332;52.136;20.666;2022-09-12T14:24:58;7.72;;;2.78;;
56429;SDS011;42332;52.136;20.666;2022-09-12T14:27:28;9.10;;;3.60;;
56429;SDS011;42332;52.136;20.666;2022-09-12T14:30:33;6.90;;;2.03;;
56429;SDS011;42332;52.136;20.666;2022-09-12T14:35:40;8.68;;;3.55;;
56429;SDS011;42332;52.136;20.666;2022-09-12T14:38:07;11.55;;;5.50;;
56429;SDS011;42332;52.136;20.666;2022-09-12T14:40:43;6.13;;;3.00;;
56429;SDS011;42332;52.136;20.666;2022-09-12T14:43:20;4.75;;;2.33;;
56429;SDS011;42332;52.136;20.666;2022-09-12T14:48:45;5.07;;;2.10;;
56429;SDS011;42332;52.136;20.666;2022-09-12T14:51:18;7.57;;;1.90;;
56429;SDS011;42332;52.136;20.666;2022-09-12T14:53:47;8.57;;;2.50;;
56429;SDS011;42332;52.136;20.666;2022-09-12T14:56:14;6.20;;;2.53;;
56429;SDS011;42332;52.136;20.666;2022-09-12T14:58:39;10.65;;;2.40;;
56429;SDS011;42332;52.136;20.666;2022-09-12T15:03:48;5.40;;;2.20;;
56429;SDS011;42332;52.136;20.666;2022-09-12T15:06:28;7.53;;;2.17;;
56429;SDS011;42332;52.136;20.666;2022-09-12T15:08:56;6.25;;;2.10;;
56429;SDS011;42332;52.136;20.666;2022-09-12T15:11:23;7.35;;;2.20;;
56429;SDS011;42332;52.136;20.666;2022-09-12T15:13:50;6.50;;;2.20;;
56429;SDS011;42332;52.136;20.666;2022-09-12T15:16:16;7.97;;;2.65;;
56429;SDS011;42332;52.136;20.666;2022-09-12T15:18:41;9.13;;;2.67;;
56429;SDS011;42332;52.136;20.666;2022-09-12T15:21:09;8.52;;;2.92;;
56429;SDS011;42332;52.136;20.666;2022-09-12T15:23:50;10.52;;;3.97;;
56429;SDS011;42332;52.136;20.666;2022-09-12T15:26:23;7.03;;;2.67;;
56429;SDS011;42332;52.136;20.666;2022-09-12T15:28:51;11.00;;;3.53;;
56429;SDS011;42332;52.136;20.666;2022-09-12T15:31:24;9.02;;;3.13;;
56429;SDS011;42332;52.136;20.666;2022-09-12T15:33:50;10.25;;;3.90;;
56429;SDS011;42332;52.136;20.666;2022-09-12T15:36:16;8.00;;;3.47;;
56429;SDS011;42332;52.136;20.666;2022-09-12T15:38:43;10.73;;;3.80;;
56429;SDS011;42332;52.136;20.666;2022-09-12T15:41:10;10.40;;;3.60;;
56429;SDS011;42332;52.136;20.666;2022-09-12T15:43:40;6.25;;;2.53;;
56429;SDS011;42332;52.136;20.666;2022-09-12T15:46:08;8.55;;;3.47;;
56429;SDS011;42332;52.136;20.666;2022-09-12T15:48:35;6.28;;;2.50;;
56429;SDS011;42332;52.136;20.666;2022-09-12T15:51:01;14.95;;;5.47;;
56429;SDS011;42332;52.136;20.666;2022-09-12T15:53:28;16.92;;;6.70;;
56429;SDS011;42332;52.136;20.666;2022-09-12T15:55:54;18.98;;;7.35;;
56429;SDS011;42332;52.136;20.666;2022-09-12T15:58:20;45.30;;;14.02;;
56429;SDS011;42332;52.136;20.666;2022-09-12T16:00:45;46.13;;;14.63;;
56429;SDS011;42332;52.136;20.666;2022-09-12T16:03:16;33.75;;;11.88;;
56429;SDS011;42332;52.136;20.666;2022-09-12T16:05:47;24.67;;;8.82;;
56429;SDS011;42332;52.136;20.666;2022-09-12T16:08:13;23.08;;;8.82;;
56429;SDS011;42332;52.136;20.666;2022-09-12T16:10:38;27.85;;;11.18;;
56429;SDS011;42332;52.136;20.666;2022-09-12T16:13:07;29.05;;;12.70;;
56429;SDS011;42332;52.136;20.666;2022-09-12T16:15:32;34.13;;;14.35;;
56429;SDS011;42332;52.136;20.666;2022-09-12T16:17:58;36.33;;;15.70;;
56429;SDS011;42332;52.136;20.666;2022-09-12T16:20:23;40.20;;;18.13;;
56429;SDS011;42332;52.136;20.666;2022-09-12T16:22:49;42.58;;;18.98;;
56429;SDS011;42332;52.136;20.666;2022-09-12T16:25:14;46.00;;;20.30;;
56429;SDS011;42332;52.136;20.666;2022-09-12T16:27:41;43.58;;;21.33;;
56429;SDS011;42332;52.136;20.666;2022-09-12T16:30:07;55.22;;;22.23;;
56429;SDS011;42332;52.136;20.666;2022-09-12T16:32:33;54.70;;;21.70;;
56429;SDS011;42332;52.136;20.666;2022-09-12T16:34:58;50.47;;;19.95;;
56429;SDS011;42332;52.136;20.666;2022-09-12T16:37:24;51.08;;;20.08;;
56429;SDS011;42332;52.136;20.666;2022-09-12T16:39:49;47.05;;;18.33;;
56429;SDS011;42332;52.136;20.666;2022-09-12T16:42:16;36.90;;;15.05;;
56429;SDS011;42332;52.136;20.666;2022-09-12T16:44:43;39.97;;;14.25;;
56429;SDS011;42332;52.136;20.666;2022-09-12T16:47:09;37.60;;;15.13;;
56429;SDS011;42332;52.136;20.666;2022-09-12T16:49:35;29.42;;;13.00;;
56429;SDS011;42332;52.136;20.666;2022-09-12T16:52:00;21.05;;;10.07;;
56429;SDS011;42332;52.136;20.666;2022-09-12T16:54:26;23.83;;;10.95;;
56429;SDS011;42332;52.136;20.666;2022-09-12T16:56:51;21.88;;;11.38;;
56429;SDS011;42332;52.136;20.666;2022-09-12T16:59:16;38.40;;;14.35;;
56429;SDS011;42332;52.136;20.666;2022-09-12T17:01:42;52.65;;;19.48;;
56429;SDS011;42332;52.136;20.666;2022-09-12T17:04:09;108.57;;;34.25;;
56429;SDS011;42332;52.136;20.666;2022-09-12T17:06:34;208.68;;;61.58;;
56429;SDS011;42332;52.136;20.666;2022-09-12T17:09:01;257.67;;;75.85;;
56429;SDS011;42332;52.136;20.666;2022-09-12T17:11:29;150.88;;;49.97;;
56429;SDS011;42332;52.136;20.666;2022-09-12T17:13:56;156.35;;;51.15;;
56429;SDS011;42332;52.136;20.666;2022-09-12T17:16:22;67.65;;;25.70;;
56429;SDS011;42332;52.136;20.666;2022-09-12T17:18:48;37.15;;;15.30;;
56429;SDS011;42332;52.136;20.666;2022-09-12T17:21:14;27.58;;;12.60;;
56429;SDS011;42332;52.136;20.666;2022-09-12T17:23:40;34.72;;;15.63;;
56429;SDS011;42332;52.136;20.666;2022-09-12T17:26:06;38.67;;;16.40;;
56429;SDS011;42332;52.136;20.666;2022-09-12T17:28:33;39.55;;;16.67;;
56429;SDS011;42332;52.136;20.666;2022-09-12T17:31:00;70.50;;;23.60;;
56429;SDS011;42332;52.136;20.666;2022-09-12T17:33:26;65.00;;;25.05;;